sensor_id;sensor_type;location;lat;lon;timestamp;P1;durP1;ratioP1;P2;durP2;ratioP2
16963;SDS011;8598;50.508;10.436;2023-06-26T00:00:43;7.43;;;6.33;;
16963;SDS011;8598;50.508;10.436;2023-06-26T00:03:12;9.60;;;5.90;;
16963;SDS011;8598;50.508;10.436;2023-06-26T00:05:40;8.03;;;5.87;;
16963;SDS011;8598;50.508;10.436;2023-06-26T00:08:06;6.50;;;5.70;;
16963;SDS011;8598;50.508;10.436;2023-06-26T00:10:33;11.57;;;7.53;;
16963;SDS011;8598;50.508;10.436;2023-06-26T00:13:01;9.33;;;6.30;;
16963;SDS011;8598;50.508;10.436;2023-06-26T00:15:28;8.83;;;6.33;;
16963;SDS011;8598;50.508;10.436;2023-06-26T00:17:56;8.10;;;6.17;;
16963;SDS011;8598;50.508;10.436;2023-06-26T00:20:23;8.10;;;5.63;;
16963;SDS011;8598;50.508;10.436;2023-06-26T00:22:50;8.53;;;6.30;;
16963;SDS011;8598;50.508;10.436;2023-06-26T00:25:18;8.27;;;5.57;;
16963;SDS011;8598;50.508;10.436;2023-06-26T00:27:45;8.30;;;6.13;;
16963;SDS011;8598;50.508;10.436;2023-06-26T00:30:13;8.10;;;6.07;;
16963;SDS011;8598;50.508;10.436;2023-06-26T00:32:39;7.63;;;5.93;;
16963;SDS011;8598;50.508;10.436;2023-06-26T00:35:06;10.43;;;6.40;;
16963;SDS011;8598;50.508;10.436;2023-06-26T00:37:33;9.53;;;6.13;;
16963;SDS011;8598;50.508;10.436;2023-06-26T00:39:59;9.33;;;6.50;;
16963;SDS011;8598;50.508;10.436;2023-06-26T00:42:26;7.73;;;6.13;;
16963;SDS011;8598;50.508;10.436;2023-06-26T00:44:53;11.77;;;6.23;;
16963;SDS011;8598;50.508;10.436;2023-06-26T00:47:21;8.63;;;6.87;;
16963;SDS011;8598;50.508;10.436;2023-06-26T00:49:47;8.33;;;6.33;;
16963;SDS011;8598;50.508;10.436;2023-06-26T00:52:14;11.77;;;7.03;;
16963;SDS011;8598;50.508;10.436;2023-06-26T00:54:41;8.77;;;6.27;;
16963;SDS011;8598;50.508;10.436;2023-06-26T00:57:08;9.73;;;6.37;;
16963;SDS011;8598;50.508;10.436;2023-06-26T00:59:35;9.80;;;6.73;;
16963;SDS011;8598;50.508;10.436;2023-06-26T01:02:02;8.67;;;6.90;;
16963;SDS011;8598;50.508;10.436;2023-06-26T01:04:30;9.37;;;6.53;;
16963;SDS011;8598;50.508;10.436;2023-06-26T01:06:57;9.60;;;6.83;;
16963;SDS011;8598;50.508;10.436;2023-06-26T01:09:25;8.57;;;6.50;;
16963;SDS011;8598;50.508;10.436;2023-06-26T01:11:52;9.30;;;6.67;;
16963;SDS011;8598;50.508;10.436;2023-06-26T01:14:19;9.70;;;6.70;;
16963;SDS011;8598;50.508;10.436;2023-06-26T01:16:46;11.73;;;7.07;;
16963;SDS011;8598;50.508;10.436;2023-06-26T01:19:17;9.90;;;6.43;;
16963;SDS011;8598;50.508;10.436;2023-06-26T01:21:51;9.17;;;7.37;;
16963;SDS011;8598;50.508;10.436;2023-06-26T01:24:23;8.33;;;6.57;;
16963;SDS011;8598;50.508;10.436;2023-06-26T01:26:55;9.40;;;5.93;;
16963;SDS011;8598;50.508;10.436;2023-06-26T01:29:22;10.80;;;6.63;;
16963;SDS011;8598;50.508;10.436;2023-06-26T01:31:50;10.17;;;6.83;;
16963;SDS011;8598;50.508;10.436;2023-06-26T01:34:17;9.37;;;6.80;;
16963;SDS011;8598;50.508;10.436;2023-06-26T01:36:44;11.53;;;7.20;;
16963;SDS011;8598;50.508;10.436;2023-06-26T01:39:13;8.90;;;6.73;;
16963;SDS011;8598;50.508;10.436;2023-06-26T01:41:41;11.33;;;7.17;;
16963;SDS011;8598;50.508;10.436;2023-06-26T01:44:14;10.13;;;6.87;;
16963;SDS011;8598;50.508;10.436;2023-06-26T01:46:52;13.13;;;7.63;;
16963;SDS011;8598;50.508;10.436;2023-06-26T01:49:25;9.60;;;6.53;;
16963;SDS011;8598;50.508;10.436;2023-06-26T01:52:03;12.03;;;6.90;;
16963;SDS011;8598;50.508;10.436;2023-06-26T01:54:36;11.13;;;7.20;;
16963;SDS011;8598;50.508;10.436;2023-06-26T01:57:08;15.67;;;7.50;;
16963;SDS011;8598;50.508;10.436;2023-06-26T01:59:38;10.07;;;7.17;;
16963;SDS011;8598;50.508;10.436;2023-06-26T02:02:07;16.93;;;7.30;;
16963;SDS011;8598;50.508;10.436;2023-06-26T02:04:34;8.47;;;6.57;;
16963;SDS011;8598;50.508;10.436;2023-06-26T02:07:02;11.50;;;7.43;;
16963;SDS011;8598;50.508;10.436;2023-06-26T02:09:29;9.63;;;6.90;;
16963;SDS011;8598;50.508;10.436;2023-06-26T02:11:55;12.97;;;6.30;;
16963;SDS011;8598;50.508;10.436;2023-06-26T02:14:22;13.37;;;6.53;;
16963;SDS011;8598;50.508;10.436;2023-06-26T02:16:50;11.27;;;6.93;;
16963;SDS011;8598;50.508;10.436;2023-06-26T02:19:16;9.30;;;6.67;;
16963;SDS011;8598;50.508;10.436;2023-06-26T02:21:46;9.00;;;6.70;;
16963;SDS011;8598;50.508;10.436;2023-06-26T02:24:13;8.50;;;6.80;;
16963;SDS011;8598;50.508;10.436;2023-06-26T02:26:39;10.30;;;7.33;;
16963;SDS011;8598;50.508;10.436;2023-06-26T02:29:06;10.13;;;7.27;;
16963;SDS011;8598;50.508;10.436;2023-06-26T02:31:32;10.60;;;7.13;;
16963;SDS011;8598;50.508;10.436;2023-06-26T02:34:00;11.73;;;7.47;;
16963;SDS011;8598;50.508;10.436;2023-06-26T02:36:27;15.00;;;7.47;;
16963;SDS011;8598;50.508;10.436;2023-06-26T02:38:54;11.50;;;7.20;;
16963;SDS011;8598;50.508;10.436;2023-06-26T02:41:20;10.60;;;7.50;;
16963;SDS011;8598;50.508;10.436;2023-06-26T02:43:47;10.20;;;7.07;;
16963;SDS011;8598;50.508;10.436;2023-06-26T02:46:13;11.97;;;7.17;;
16963;SDS011;8598;50.508;10.436;2023-06-26T02:48:40;10.73;;;7.50;;
16963;SDS011;8598;50.508;10.436;2023-06-26T02:51:08;16.03;;;8.10;;
16963;SDS011;8598;50.508;10.436;2023-06-26T02:53:35;10.03;;;7.00;;
16963;SDS011;8598;50.508;10.436;2023-06-26T02:56:01;11.20;;;6.80;;
16963;SDS011;8598;50.508;10.436;2023-06-26T02:58:28;9.00;;;7.27;;
16963;SDS011;8598;50.508;10.436;2023-06-26T03:00:55;11.47;;;7.03;;
16963;SDS011;8598;50.508;10.436;2023-06-26T03:03:22;19.73;;;7.63;;
16963;SDS011;8598;50.508;10.436;2023-06-26T03:05:48;11.83;;;7.20;;
16963;SDS011;8598;50.508;10.436;2023-06-26T03:08:16;11.13;;;7.40;;
16963;SDS011;8598;50.508;10.436;2023-06-26T03:10:43;11.87;;;8.00;;
16963;SDS011;8598;50.508;10.436;2023-06-26T03:13:09;12.97;;;7.83;;
16963;SDS011;8598;50.508;10.436;2023-06-26T03:15:36;13.83;;;7.73;;
16963;SDS011;8598;50.508;10.436;2023-06-26T03:18:03;11.80;;;7.87;;
16963;SDS011;8598;50.508;10.436;2023-06-26T03:20:29;14.00;;;7.63;;
16963;SDS011;8598;50.508;10.436;2023-06-26T03:22:56;13.50;;;7.50;;
16963;SDS011;8598;50.508;10.436;2023-06-26T03:25:24;11.77;;;7.93;;
16963;SDS011;8598;50.508;10.436;2023-06-26T03:27:50;13.70;;;7.47;;
16963;SDS011;8598;50.508;10.436;2023-06-26T03:30:17;12.10;;;7.37;;
16963;SDS011;8598;50.508;10.436;2023-06-26T03:32:44;12.70;;;7.07;;
16963;SDS011;8598;50.508;10.436;2023-06-26T03:35:10;9.73;;;7.20;;
16963;SDS011;8598;50.508;10.436;2023-06-26T03:37:37;10.33;;;6.50;;
16963;SDS011;8598;50.508;10.436;2023-06-26T03:40:05;12.07;;;6.70;;
16963;SDS011;8598;50.508;10.436;2023-06-26T03:42:34;12.97;;;7.43;;
16963;SDS011;8598;50.508;10.436;2023-06-26T03:45:01;12.23;;;7.27;;
16963;SDS011;8598;50.508;10.436;2023-06-26T03:47:28;13.87;;;7.07;;
16963;SDS011;8598;50.508;10.436;2023-06-26T03:49:54;10.73;;;7.53;;
16963;SDS011;8598;50.508;10.436;2023-06-26T03:52:21;14.33;;;7.57;;
16963;SDS011;8598;50.508;10.436;2023-06-26T03:54:48;11.47;;;7.13;;
16963;SDS011;8598;50.508;10.436;2023-06-26T03:57:15;13.30;;;6.90;;
16963;SDS011;8598;50.508;10.436;2023-06-26T03:59:43;11.30;;;6.77;;
16963;SDS011;8598;50.508;10.436;2023-06-26T04:02:10;9.63;;;6.53;;
16963;SDS011;8598;50.508;10.436;2023-06-26T04:04:37;10.80;;;7.10;;
16963;SDS011;8598;50.508;10.436;2023-06-26T04:07:04;12.90;;;6.57;;
16963;SDS011;8598;50.508;10.436;2023-06-26T04:09:30;9.77;;;6.77;;
16963;SDS011;8598;50.508;10.436;2023-06-26T04:11:57;15.00;;;6.90;;
16963;SDS011;8598;50.508;10.436;2023-06-26T04:14:24;12.10;;;7.63;;
16963;SDS011;8598;50.508;10.436;2023-06-26T04:16:51;8.37;;;6.50;;
16963;SDS011;8598;50.508;10.436;2023-06-26T04:19:18;11.17;;;7.23;;
16963;SDS011;8598;50.508;10.436;2023-06-26T04:21:45;15.03;;;7.00;;
16963;SDS011;8598;50.508;10.436;2023-06-26T04:24:12;11.83;;;6.60;;
16963;SDS011;8598;50.508;10.436;2023-06-26T04:26:38;11.00;;;7.70;;
16963;SDS011;8598;50.508;10.436;2023-06-26T04:29:06;9.00;;;7.10;;
16963;SDS011;8598;50.508;10.436;2023-06-26T04:31:32;9.17;;;6.90;;
16963;SDS011;8598;50.508;10.436;2023-06-26T04:34:00;11.30;;;7.27;;
16963;SDS011;8598;50.508;10.436;2023-06-26T04:36:27;11.73;;;6.67;;
16963;SDS011;8598;50.508;10.436;2023-06-26T04:38:54;12.17;;;6.63;;
16963;SDS011;8598;50.508;10.436;2023-06-26T04:41:23;12.10;;;7.07;;
16963;SDS011;8598;50.508;10.436;2023-06-26T04:43:51;13.93;;;6.80;;
16963;SDS011;8598;50.508;10.436;2023-06-26T04:46:17;10.63;;;8.23;;
16963;SDS011;8598;50.508;10.436;2023-06-26T04:48:44;12.20;;;7.53;;
16963;SDS011;8598;50.508;10.436;2023-06-26T04:51:12;13.77;;;6.77;;
16963;SDS011;8598;50.508;10.436;2023-06-26T04:53:38;12.53;;;6.50;;
16963;SDS011;8598;50.508;10.436;2023-06-26T04:56:05;12.17;;;6.20;;
16963;SDS011;8598;50.508;10.436;2023-06-26T04:58:31;10.17;;;6.13;;
16963;SDS011;8598;50.508;10.436;2023-06-26T05:00:58;11.93;;;5.80;;
16963;SDS011;8598;50.508;10.436;2023-06-26T05:03:25;6.73;;;4.90;;
16963;SDS011;8598;50.508;10.436;2023-06-26T05:05:51;5.53;;;4.27;;
16963;SDS011;8598;50.508;10.436;2023-06-26T05:08:20;8.13;;;5.37;;
16963;SDS011;8598;50.508;10.436;2023-06-26T05:10:47;12.20;;;5.27;;
16963;SDS011;8598;50.508;10.436;2023-06-26T05:13:14;7.47;;;4.57;;
16963;SDS011;8598;50.508;10.436;2023-06-26T05:15:42;8.20;;;5.63;;
16963;SDS011;8598;50.508;10.436;2023-06-26T05:18:09;7.50;;;5.30;;
16963;SDS011;8598;50.508;10.436;2023-06-26T05:20:36;7.23;;;5.53;;
16963;SDS011;8598;50.508;10.436;2023-06-26T05:23:03;6.57;;;5.40;;
16963;SDS011;8598;50.508;10.436;2023-06-26T05:25:32;7.53;;;5.23;;
16963;SDS011;8598;50.508;10.436;2023-06-26T05:27:59;8.87;;;5.40;;
16963;SDS011;8598;50.508;10.436;2023-06-26T05:30:27;6.97;;;5.20;;
16963;SDS011;8598;50.508;10.436;2023-06-26T05:32:56;7.57;;;4.97;;
16963;SDS011;8598;50.508;10.436;2023-06-26T05:35:25;6.93;;;5.57;;
16963;SDS011;8598;50.508;10.436;2023-06-26T05:37:56;7.33;;;5.57;;
16963;SDS011;8598;50.508;10.436;2023-06-26T05:40:23;6.27;;;5.20;;
16963;SDS011;8598;50.508;10.436;2023-06-26T05:42:52;6.70;;;5.20;;
16963;SDS011;8598;50.508;10.436;2023-06-26T05:45:19;6.57;;;5.15;;
16963;SDS011;8598;50.508;10.436;2023-06-26T05:47:46;5.50;;;5.00;;
16963;SDS011;8598;50.508;10.436;2023-06-26T05:50:16;9.45;;;5.22;;
16963;SDS011;8598;50.508;10.436;2023-06-26T05:52:44;6.18;;;5.40;;
16963;SDS011;8598;50.508;10.436;2023-06-26T05:55:11;7.80;;;4.95;;
16963;SDS011;8598;50.508;10.436;2023-06-26T05:57:39;6.85;;;5.10;;
16963;SDS011;8598;50.508;10.436;2023-06-26T06:00:09;6.35;;;5.30;;
16963;SDS011;8598;50.508;10.436;2023-06-26T06:02:36;6.97;;;5.63;;
16963;SDS011;8598;50.508;10.436;2023-06-26T06:05:03;6.93;;;5.80;;
16963;SDS011;8598;50.508;10.436;2023-06-26T06:07:30;8.80;;;6.00;;
16963;SDS011;8598;50.508;10.436;2023-06-26T06:09:57;9.18;;;5.72;;
16963;SDS011;8598;50.508;10.436;2023-06-26T06:12:24;6.80;;;4.82;;
16963;SDS011;8598;50.508;10.436;2023-06-26T06:14:50;6.10;;;5.10;;
16963;SDS011;8598;50.508;10.436;2023-06-26T06:17:18;8.55;;;5.22;;
16963;SDS011;8598;50.508;10.436;2023-06-26T06:19:45;5.65;;;5.15;;
16963;SDS011;8598;50.508;10.436;2023-06-26T06:22:12;5.60;;;5.10;;
16963;SDS011;8598;50.508;10.436;2023-06-26T06:24:38;7.10;;;5.47;;
16963;SDS011;8598;50.508;10.436;2023-06-26T06:27:05;6.80;;;4.85;;
16963;SDS011;8598;50.508;10.436;2023-06-26T06:29:32;5.15;;;4.65;;
16963;SDS011;8598;50.508;10.436;2023-06-26T06:31:58;5.47;;;4.95;;
16963;SDS011;8598;50.508;10.436;2023-06-26T06:34:26;5.45;;;4.95;;
16963;SDS011;8598;50.508;10.436;2023-06-26T06:36:53;5.25;;;4.65;;
16963;SDS011;8598;50.508;10.436;2023-06-26T06:39:20;6.95;;;5.18;;
16963;SDS011;8598;50.508;10.436;2023-06-26T06:41:46;6.18;;;4.80;;
16963;SDS011;8598;50.508;10.436;2023-06-26T06:44:13;5.45;;;4.90;;
16963;SDS011;8598;50.508;10.436;2023-06-26T06:46:39;5.57;;;4.63;;
16963;SDS011;8598;50.508;10.436;2023-06-26T06:49:07;5.93;;;5.32;;
16963;SDS011;8598;50.508;10.436;2023-06-26T06:51:36;7.38;;;6.22;;
16963;SDS011;8598;50.508;10.436;2023-06-26T06:54:02;5.47;;;4.97;;
16963;SDS011;8598;50.508;10.436;2023-06-26T06:56:29;6.57;;;4.95;;
16963;SDS011;8598;50.508;10.436;2023-06-26T06:58:56;5.50;;;4.95;;
16963;SDS011;8598;50.508;10.436;2023-06-26T07:01:22;5.32;;;4.82;;
16963;SDS011;8598;50.508;10.436;2023-06-26T07:03:49;5.47;;;4.90;;
16963;SDS011;8598;50.508;10.436;2023-06-26T07:06:16;5.78;;;5.18;;
16963;SDS011;8598;50.508;10.436;2023-06-26T07:08:44;6.20;;;4.72;;
16963;SDS011;8598;50.508;10.436;2023-06-26T07:11:10;5.43;;;4.93;;
16963;SDS011;8598;50.508;10.436;2023-06-26T07:13:37;5.25;;;4.75;;
16963;SDS011;8598;50.508;10.436;2023-06-26T07:16:03;5.65;;;5.05;;
16963;SDS011;8598;50.508;10.436;2023-06-26T07:18:30;5.50;;;4.80;;
16963;SDS011;8598;50.508;10.436;2023-06-26T07:20:57;6.28;;;5.55;;
16963;SDS011;8598;50.508;10.436;2023-06-26T07:23:23;7.47;;;5.53;;
16963;SDS011;8598;50.508;10.436;2023-06-26T07:25:51;7.75;;;5.10;;
16963;SDS011;8598;50.508;10.436;2023-06-26T07:28:18;6.05;;;5.20;;
16963;SDS011;8598;50.508;10.436;2023-06-26T07:30:44;7.15;;;5.05;;
16963;SDS011;8598;50.508;10.436;2023-06-26T07:33:11;6.07;;;5.28;;
16963;SDS011;8598;50.508;10.436;2023-06-26T07:35:38;5.90;;;5.35;;
16963;SDS011;8598;50.508;10.436;2023-06-26T07:38:04;7.07;;;5.18;;
16963;SDS011;8598;50.508;10.436;2023-06-26T07:40:31;7.43;;;5.15;;
16963;SDS011;8598;50.508;10.436;2023-06-26T07:42:59;5.40;;;4.90;;
16963;SDS011;8598;50.508;10.436;2023-06-26T07:45:25;9.43;;;5.60;;
16963;SDS011;8598;50.508;10.436;2023-06-26T07:47:52;8.73;;;5.35;;
16963;SDS011;8598;50.508;10.436;2023-06-26T07:50:19;6.85;;;5.30;;
16963;SDS011;8598;50.508;10.436;2023-06-26T07:52:47;7.13;;;5.10;;
16963;SDS011;8598;50.508;10.436;2023-06-26T07:55:14;7.05;;;5.30;;
16963;SDS011;8598;50.508;10.436;2023-06-26T07:57:41;5.75;;;5.15;;
16963;SDS011;8598;50.508;10.436;2023-06-26T08:00:10;6.32;;;5.32;;
16963;SDS011;8598;50.508;10.436;2023-06-26T08:02:37;6.03;;;5.43;;
16963;SDS011;8598;50.508;10.436;2023-06-26T08:05:04;5.82;;;5.05;;
16963;SDS011;8598;50.508;10.436;2023-06-26T08:07:31;7.40;;;4.72;;
16963;SDS011;8598;50.508;10.436;2023-06-26T08:09:57;6.25;;;5.20;;
16963;SDS011;8598;50.508;10.436;2023-06-26T08:12:24;8.30;;;5.22;;
16963;SDS011;8598;50.508;10.436;2023-06-26T08:14:50;7.10;;;5.35;;
16963;SDS011;8598;50.508;10.436;2023-06-26T08:17:18;6.93;;;5.20;;
16963;SDS011;8598;50.508;10.436;2023-06-26T08:19:45;6.93;;;4.70;;
16963;SDS011;8598;50.508;10.436;2023-06-26T08:22:12;6.43;;;4.80;;
16963;SDS011;8598;50.508;10.436;2023-06-26T08:24:38;6.30;;;4.88;;
16963;SDS011;8598;50.508;10.436;2023-06-26T08:27:05;5.80;;;4.88;;
16963;SDS011;8598;50.508;10.436;2023-06-26T08:29:32;7.18;;;5.03;;
16963;SDS011;8598;50.508;10.436;2023-06-26T08:31:59;7.45;;;5.05;;
16963;SDS011;8598;50.508;10.436;2023-06-26T08:34:28;5.35;;;4.78;;
16963;SDS011;8598;50.508;10.436;2023-06-26T08:36:55;7.32;;;4.78;;
16963;SDS011;8598;50.508;10.436;2023-06-26T08:39:21;5.27;;;4.77;;
16963;SDS011;8598;50.508;10.436;2023-06-26T08:41:48;6.15;;;5.22;;
16963;SDS011;8598;50.508;10.436;2023-06-26T08:44:15;6.85;;;5.00;;
16963;SDS011;8598;50.508;10.436;2023-06-26T08:46:41;10.30;;;5.35;;
16963;SDS011;8598;50.508;10.436;2023-06-26T08:49:11;5.32;;;4.82;;
16963;SDS011;8598;50.508;10.436;2023-06-26T08:51:45;8.23;;;5.07;;
16963;SDS011;8598;50.508;10.436;2023-06-26T08:54:21;6.25;;;5.20;;
16963;SDS011;8598;50.508;10.436;2023-06-26T08:56:53;8.95;;;4.50;;
16963;SDS011;8598;50.508;10.436;2023-06-26T08:59:21;8.25;;;5.03;;
16963;SDS011;8598;50.508;10.436;2023-06-26T09:01:48;5.80;;;4.75;;
16963;SDS011;8598;50.508;10.436;2023-06-26T09:04:15;11.40;;;4.57;;
16963;SDS011;8598;50.508;10.436;2023-06-26T09:06:42;5.45;;;4.85;;
16963;SDS011;8598;50.508;10.436;2023-06-26T09:09:10;6.75;;;4.72;;
16963;SDS011;8598;50.508;10.436;2023-06-26T09:11:37;5.85;;;4.50;;
16963;SDS011;8598;50.508;10.436;2023-06-26T09:14:04;5.55;;;4.95;;
16963;SDS011;8598;50.508;10.436;2023-06-26T09:16:32;6.97;;;4.43;;
16963;SDS011;8598;50.508;10.436;2023-06-26T09:19:08;6.00;;;4.70;;
16963;SDS011;8598;50.508;10.436;2023-06-26T09:21:36;6.10;;;4.45;;
16963;SDS011;8598;50.508;10.436;2023-06-26T09:24:05;4.65;;;4.18;;
16963;SDS011;8598;50.508;10.436;2023-06-26T09:26:33;5.28;;;4.45;;
16963;SDS011;8598;50.508;10.436;2023-06-26T09:29:00;5.32;;;4.63;;
16963;SDS011;8598;50.508;10.436;2023-06-26T09:31:27;5.32;;;4.45;;
16963;SDS011;8598;50.508;10.436;2023-06-26T09:33:55;5.23;;;4.73;;
16963;SDS011;8598;50.508;10.436;2023-06-26T09:36:26;5.70;;;4.80;;
16963;SDS011;8598;50.508;10.436;2023-06-26T09:38:54;5.40;;;4.53;;
16963;SDS011;8598;50.508;10.436;2023-06-26T09:41:22;5.03;;;4.07;;
16963;SDS011;8598;50.508;10.436;2023-06-26T09:43:48;6.47;;;4.60;;
16963;SDS011;8598;50.508;10.436;2023-06-26T09:46:16;6.97;;;4.93;;
16963;SDS011;8598;50.508;10.436;2023-06-26T09:48:43;5.50;;;4.27;;
16963;SDS011;8598;50.508;10.436;2023-06-26T09:51:10;6.10;;;4.53;;
16963;SDS011;8598;50.508;10.436;2023-06-26T09:53:36;5.80;;;4.87;;
16963;SDS011;8598;50.508;10.436;2023-06-26T09:56:06;5.20;;;4.30;;
16963;SDS011;8598;50.508;10.436;2023-06-26T09:58:34;6.30;;;5.00;;
16963;SDS011;8598;50.508;10.436;2023-06-26T10:01:03;8.93;;;5.27;;
16963;SDS011;8598;50.508;10.436;2023-06-26T10:03:32;6.50;;;5.00;;
16963;SDS011;8598;50.508;10.436;2023-06-26T10:05:59;5.73;;;4.60;;
16963;SDS011;8598;50.508;10.436;2023-06-26T10:08:27;5.40;;;4.90;;
16963;SDS011;8598;50.508;10.436;2023-06-26T10:10:54;7.00;;;4.93;;
16963;SDS011;8598;50.508;10.436;2023-06-26T10:13:24;6.03;;;5.40;;
16963;SDS011;8598;50.508;10.436;2023-06-26T10:15:58;5.40;;;4.70;;
16963;SDS011;8598;50.508;10.436;2023-06-26T10:18:26;6.33;;;4.90;;
16963;SDS011;8598;50.508;10.436;2023-06-26T10:20:57;6.40;;;4.83;;
16963;SDS011;8598;50.508;10.436;2023-06-26T10:23:26;7.33;;;5.10;;
16963;SDS011;8598;50.508;10.436;2023-06-26T10:25:54;5.50;;;4.90;;
16963;SDS011;8598;50.508;10.436;2023-06-26T10:28:24;5.90;;;4.77;;
16963;SDS011;8598;50.508;10.436;2023-06-26T10:30:53;7.03;;;5.23;;
16963;SDS011;8598;50.508;10.436;2023-06-26T10:33:22;7.57;;;5.07;;
16963;SDS011;8598;50.508;10.436;2023-06-26T10:35:49;6.43;;;5.03;;
16963;SDS011;8598;50.508;10.436;2023-06-26T10:38:16;5.53;;;4.70;;
16963;SDS011;8598;50.508;10.436;2023-06-26T10:40:43;7.87;;;5.00;;
16963;SDS011;8598;50.508;10.436;2023-06-26T10:43:11;5.80;;;4.57;;
16963;SDS011;8598;50.508;10.436;2023-06-26T10:45:43;5.30;;;4.80;;
16963;SDS011;8598;50.508;10.436;2023-06-26T10:48:12;5.57;;;4.47;;
16963;SDS011;8598;50.508;10.436;2023-06-26T10:50:41;6.60;;;5.03;;
16963;SDS011;8598;50.508;10.436;2023-06-26T10:53:08;6.83;;;5.00;;
16963;SDS011;8598;50.508;10.436;2023-06-26T10:55:40;5.17;;;4.67;;
16963;SDS011;8598;50.508;10.436;2023-06-26T11:01:15;6.10;;;5.13;;
16963;SDS011;8598;50.508;10.436;2023-06-26T11:03:44;6.90;;;4.93;;
16963;SDS011;8598;50.508;10.436;2023-06-26T11:06:13;7.20;;;5.13;;
16963;SDS011;8598;50.508;10.436;2023-06-26T11:08:44;5.97;;;5.37;;
16963;SDS011;8598;50.508;10.436;2023-06-26T11:11:11;5.67;;;4.83;;
16963;SDS011;8598;50.508;10.436;2023-06-26T11:13:39;5.90;;;4.87;;
16963;SDS011;8598;50.508;10.436;2023-06-26T11:16:06;6.60;;;4.87;;
16963;SDS011;8598;50.508;10.436;2023-06-26T11:18:33;5.70;;;5.10;;
16963;SDS011;8598;50.508;10.436;2023-06-26T11:21:04;6.77;;;5.50;;
16963;SDS011;8598;50.508;10.436;2023-06-26T11:23:33;6.37;;;4.60;;
16963;SDS011;8598;50.508;10.436;2023-06-26T11:26:14;5.37;;;4.87;;
16963;SDS011;8598;50.508;10.436;2023-06-26T11:28:46;7.47;;;4.80;;
16963;SDS011;8598;50.508;10.436;2023-06-26T11:31:29;5.70;;;4.53;;
16963;SDS011;8598;50.508;10.436;2023-06-26T11:33:57;7.67;;;5.17;;
16963;SDS011;8598;50.508;10.436;2023-06-26T11:36:24;6.00;;;4.63;;
16963;SDS011;8598;50.508;10.436;2023-06-26T11:38:56;9.33;;;5.20;;
16963;SDS011;8598;50.508;10.436;2023-06-26T11:41:23;5.87;;;4.50;;
16963;SDS011;8598;50.508;10.436;2023-06-26T11:43:50;6.20;;;5.17;;
16963;SDS011;8598;50.508;10.436;2023-06-26T11:46:18;9.30;;;5.13;;
16963;SDS011;8598;50.508;10.436;2023-06-26T11:48:45;6.33;;;4.27;;
16963;SDS011;8598;50.508;10.436;2023-06-26T11:51:12;5.53;;;4.07;;
16963;SDS011;8598;50.508;10.436;2023-06-26T11:53:40;5.70;;;4.07;;
16963;SDS011;8598;50.508;10.436;2023-06-26T11:56:09;6.07;;;4.67;;
16963;SDS011;8598;50.508;10.436;2023-06-26T12:01:22;5.97;;;4.37;;
16963;SDS011;8598;50.508;10.436;2023-06-26T12:03:49;6.00;;;4.70;;
16963;SDS011;8598;50.508;10.436;2023-06-26T12:06:16;7.10;;;4.70;;
16963;SDS011;8598;50.508;10.436;2023-06-26T12:08:44;5.87;;;4.50;;
16963;SDS011;8598;50.508;10.436;2023-06-26T12:11:12;5.53;;;4.57;;
16963;SDS011;8598;50.508;10.436;2023-06-26T12:13:39;4.67;;;4.07;;
16963;SDS011;8598;50.508;10.436;2023-06-26T12:16:06;8.37;;;4.57;;
16963;SDS011;8598;50.508;10.436;2023-06-26T12:18:33;6.13;;;4.70;;
16963;SDS011;8598;50.508;10.436;2023-06-26T12:21:00;13.07;;;5.23;;
16963;SDS011;8598;50.508;10.436;2023-06-26T12:23:31;7.90;;;4.97;;
16963;SDS011;8598;50.508;10.436;2023-06-26T12:25:58;5.47;;;4.93;;
16963;SDS011;8598;50.508;10.436;2023-06-26T12:28:26;5.80;;;5.20;;
16963;SDS011;8598;50.508;10.436;2023-06-26T12:33:38;6.30;;;5.27;;
16963;SDS011;8598;50.508;10.436;2023-06-26T12:36:04;6.53;;;4.97;;
16963;SDS011;8598;50.508;10.436;2023-06-26T12:38:35;6.70;;;4.83;;
16963;SDS011;8598;50.508;10.436;2023-06-26T12:41:02;6.03;;;5.07;;
16963;SDS011;8598;50.508;10.436;2023-06-26T12:43:30;7.10;;;5.37;;
16963;SDS011;8598;50.508;10.436;2023-06-26T12:45:57;9.60;;;5.43;;
16963;SDS011;8598;50.508;10.436;2023-06-26T12:48:35;7.83;;;5.43;;
16963;SDS011;8598;50.508;10.436;2023-06-26T12:51:07;6.30;;;5.10;;
16963;SDS011;8598;50.508;10.436;2023-06-26T12:53:34;6.80;;;4.60;;
16963;SDS011;8598;50.508;10.436;2023-06-26T12:56:01;8.50;;;4.10;;
16963;SDS011;8598;50.508;10.436;2023-06-26T12:58:28;5.63;;;5.00;;
16963;SDS011;8598;50.508;10.436;2023-06-26T13:00:56;8.23;;;5.10;;
16963;SDS011;8598;50.508;10.436;2023-06-26T13:03:23;7.17;;;5.07;;
16963;SDS011;8598;50.508;10.436;2023-06-26T13:05:50;7.57;;;5.50;;
16963;SDS011;8598;50.508;10.436;2023-06-26T13:08:16;6.60;;;5.50;;
16963;SDS011;8598;50.508;10.436;2023-06-26T13:10:44;9.27;;;5.77;;
16963;SDS011;8598;50.508;10.436;2023-06-26T13:13:10;7.70;;;5.73;;
16963;SDS011;8598;50.508;10.436;2023-06-26T13:15:37;8.40;;;5.37;;
16963;SDS011;8598;50.508;10.436;2023-06-26T13:18:05;8.20;;;6.00;;
16963;SDS011;8598;50.508;10.436;2023-06-26T13:20:32;6.80;;;5.63;;
16963;SDS011;8598;50.508;10.436;2023-06-26T13:22:58;8.37;;;6.03;;
16963;SDS011;8598;50.508;10.436;2023-06-26T13:25:25;7.43;;;6.03;;
16963;SDS011;8598;50.508;10.436;2023-06-26T13:27:51;7.87;;;6.77;;
16963;SDS011;8598;50.508;10.436;2023-06-26T13:30:18;7.33;;;5.93;;
16963;SDS011;8598;50.508;10.436;2023-06-26T13:32:45;9.87;;;6.20;;
16963;SDS011;8598;50.508;10.436;2023-06-26T13:35:12;7.00;;;6.17;;
16963;SDS011;8598;50.508;10.436;2023-06-26T13:37:39;8.27;;;6.17;;
16963;SDS011;8598;50.508;10.436;2023-06-26T13:40:08;7.13;;;6.13;;
16963;SDS011;8598;50.508;10.436;2023-06-26T13:42:35;9.10;;;6.93;;
16963;SDS011;8598;50.508;10.436;2023-06-26T13:45:03;7.13;;;6.33;;
16963;SDS011;8598;50.508;10.436;2023-06-26T13:47:30;7.77;;;6.27;;
16963;SDS011;8598;50.508;10.436;2023-06-26T13:49:59;8.07;;;6.50;;
16963;SDS011;8598;50.508;10.436;2023-06-26T13:52:27;9.87;;;6.50;;
16963;SDS011;8598;50.508;10.436;2023-06-26T13:54:54;8.03;;;5.87;;
16963;SDS011;8598;50.508;10.436;2023-06-26T13:57:20;8.70;;;6.30;;
16963;SDS011;8598;50.508;10.436;2023-06-26T13:59:47;9.23;;;6.00;;
16963;SDS011;8598;50.508;10.436;2023-06-26T14:02:14;8.07;;;6.37;;
16963;SDS011;8598;50.508;10.436;2023-06-26T14:04:41;15.50;;;5.83;;
16963;SDS011;8598;50.508;10.436;2023-06-26T14:07:08;7.97;;;5.43;;
16963;SDS011;8598;50.508;10.436;2023-06-26T14:09:37;7.13;;;5.77;;
16963;SDS011;8598;50.508;10.436;2023-06-26T14:12:04;6.57;;;5.87;;
16963;SDS011;8598;50.508;10.436;2023-06-26T14:14:31;10.30;;;6.27;;
16963;SDS011;8598;50.508;10.436;2023-06-26T14:16:58;7.27;;;5.60;;
16963;SDS011;8598;50.508;10.436;2023-06-26T14:19:24;7.13;;;5.80;;
16963;SDS011;8598;50.508;10.436;2023-06-26T14:21:51;9.70;;;5.30;;
16963;SDS011;8598;50.508;10.436;2023-06-26T14:24:18;10.80;;;5.80;;
16963;SDS011;8598;50.508;10.436;2023-06-26T14:26:46;9.50;;;5.77;;
16963;SDS011;8598;50.508;10.436;2023-06-26T14:29:13;7.60;;;5.27;;
16963;SDS011;8598;50.508;10.436;2023-06-26T14:31:42;8.00;;;5.67;;
16963;SDS011;8598;50.508;10.436;2023-06-26T14:34:08;11.93;;;5.23;;
16963;SDS011;8598;50.508;10.436;2023-06-26T14:36:35;7.80;;;5.40;;
16963;SDS011;8598;50.508;10.436;2023-06-26T14:39:02;11.60;;;5.40;;
16963;SDS011;8598;50.508;10.436;2023-06-26T14:41:29;6.53;;;4.73;;
16963;SDS011;8598;50.508;10.436;2023-06-26T14:43:57;6.17;;;4.80;;
16963;SDS011;8598;50.508;10.436;2023-06-26T14:46:24;11.43;;;5.20;;
16963;SDS011;8598;50.508;10.436;2023-06-26T14:48:50;6.60;;;5.07;;
16963;SDS011;8598;50.508;10.436;2023-06-26T14:51:17;8.03;;;4.80;;
16963;SDS011;8598;50.508;10.436;2023-06-26T14:53:43;6.90;;;4.70;;
16963;SDS011;8598;50.508;10.436;2023-06-26T14:56:10;6.37;;;5.30;;